Time;durP1;ratioP1;P1;durP2;ratioP2;P2;SDS_P1;SDS_P2;PMS_P1;PMS_P2;Temp;Humidity;BMP_temperature;BMP_pressure;BME280_temperature;BME280_humidity;BME280_pressure;Samples;Min_cycle;Max_cycle;Signal;HPM_P1;HPM_P2
2023/05/14 00:01:57;;;;;;;3.40;3.10;;;17.70;56.00;;;;;;6165171;22;20012;-85
2023/05/14 00:04:22;;;;;;;4.82;3.25;;;17.70;57.10;;;;;;6162969;22;20032;-84
2023/05/14 00:06:48;;;;;;;9.15;4.35;;;17.70;57.80;;;;;;6164240;22;20013;-84
2023/05/14 00:09:14;;;;;;;4.10;3.70;;;17.60;59.10;;;;;;6164799;22;20005;-84
2023/05/14 00:11:39;;;;;;;4.63;3.70;;;17.60;60.70;;;;;;6165742;22;20016;-85
2023/05/14 00:14:05;;;;;;;4.45;3.80;;;17.60;62.20;;;;;;6165182;22;20005;-85
2023/05/14 00:16:31;;;;;;;4.72;3.92;;;17.50;63.30;;;;;;6164810;22;20009;-85
2023/05/14 00:18:57;;;;;;;5.25;3.50;;;17.50;64.10;;;;;;6164756;22;20005;-85
2023/05/14 00:21:22;;;;;;;5.30;3.80;;;17.40;64.80;;;;;;6191120;22;20333;-85
2023/05/14 00:23:48;;;;;;;6.47;4.30;;;17.40;65.30;;;;;;6157626;22;20337;-85
2023/05/14 00:26:13;;;;;;;4.07;3.67;;;17.30;64.70;;;;;;6158249;23;20032;-85
2023/05/14 00:28:39;;;;;;;3.42;2.97;;;17.30;64.30;;;;;;6160804;23;20445;-85
2023/05/14 00:31:05;;;;;;;5.85;3.03;;;17.30;62.10;;;;;;6159978;23;20002;-85
2023/05/14 00:33:31;;;;;;;3.72;3.08;;;17.20;60.50;;;;;;6160106;23;20005;-84
2023/05/14 00:35:56;;;;;;;5.65;3.38;;;17.20;60.00;;;;;;6159630;23;20032;-85
2023/05/14 00:38:23;;;;;;;3.92;3.10;;;17.20;58.90;;;;;;6156918;23;20009;-84
2023/05/14 00:40:50;;;;;;;3.25;2.88;;;17.20;58.50;;;;;;6157675;23;20012;-84
2023/05/14 00:43:20;;;;;;;5.53;2.95;;;17.20;58.40;;;;;;6157711;23;20089;-84
2023/05/14 00:45:51;;;;;;;3.85;2.85;;;17.20;57.60;;;;;;6157425;23;20404;-84
2023/05/14 00:48:18;;;;;;;4.22;3.22;;;17.20;56.90;;;;;;6157686;23;20009;-85
2023/05/14 00:50:44;;;;;;;5.15;3.30;;;17.20;56.50;;;;;;6157798;23;20006;-84
2023/05/14 00:53:10;;;;;;;3.60;2.90;;;17.20;56.20;;;;;;6161023;23;19997;-85
2023/05/14 00:55:38;;;;;;;3.90;2.70;;;17.20;56.20;;;;;;6159197;23;20006;-85
2023/05/14 00:58:08;;;;;;;6.60;3.15;;;17.20;56.00;;;;;;6161780;23;20002;-85
2023/05/14 01:00:34;;;;;;;4.80;3.00;;;17.20;55.60;;;;;;6159462;23;20005;-84
2023/05/14 01:03:01;;;;;;;3.20;2.90;;;17.20;55.70;;;;;;6159958;23;20409;-84
2023/05/14 01:05:50;;;;;;;3.65;2.97;;;17.20;55.60;;;;;;6161201;23;20360;-84
2023/05/14 01:09:07;;;;;;;4.18;3.03;;;17.20;55.70;;;;;;6161852;23;20006;-85
2023/05/14 01:11:54;;;;;;;4.43;2.75;;;17.20;55.80;;;;;;6125375;23;20036;-85
2023/05/14 01:14:32;;;;;;;3.22;2.90;;;17.20;56.00;;;;;;6159913;23;20005;-85
2023/05/14 01:17:00;;;;;;;2.85;2.63;;;17.20;56.00;;;;;;6160875;23;20116;-85
2023/05/14 01:19:40;;;;;;;5.85;2.97;;;17.20;56.30;;;;;;6161689;23;20013;-85
2023/05/14 01:22:06;;;;;;;4.40;2.97;;;17.20;56.40;;;;;;6160253;23;20035;-85
2023/05/14 01:24:32;;;;;;;3.65;3.10;;;17.20;56.60;;;;;;6189830;23;20035;-85
2023/05/14 01:27:22;;;;;;;4.07;3.47;;;17.10;56.90;;;;;;6166296;22;20066;-85
2023/05/14 01:30:22;;;;;;;4.80;3.00;;;17.10;56.90;;;;;;6163858;22;20035;-85
2023/05/14 01:32:52;;;;;;;4.13;3.08;;;17.10;56.90;;;;;;6162295;22;20012;-84
2023/05/14 01:35:22;;;;;;;5.05;3.20;;;17.00;57.40;;;;;;6188999;23;20001;-84
2023/05/14 01:37:49;;;;;;;4.13;3.20;;;17.00;59.40;;;;;;6165770;23;20009;-85
2023/05/14 01:40:14;;;;;;;5.63;3.90;;;17.00;61.20;;;;;;6167027;22;20030;-85
2023/05/14 01:42:41;;;;;;;5.18;4.30;;;17.00;62.30;;;;;;6167229;22;20021;-85
2023/05/14 01:45:07;;;;;;;4.80;3.85;;;17.00;62.90;;;;;;6166235;22;20009;-85
2023/05/14 01:47:33;;;;;;;4.13;3.72;;;17.00;63.50;;;;;;6192332;22;20001;-84
2023/05/14 01:49:58;;;;;;;5.13;4.00;;;16.90;64.10;;;;;;6165631;23;20027;-84
2023/05/14 01:52:24;;;;;;;5.32;3.78;;;16.90;64.20;;;;;;6166208;23;20494;-84
2023/05/14 01:54:50;;;;;;;9.18;5.22;;;16.90;64.20;;;;;;6192260;23;20086;-84
2023/05/14 01:57:15;;;;;;;9.30;6.47;;;16.90;64.50;;;;;;6165975;23;20005;-84
2023/05/14 01:59:41;;;;;;;12.05;7.43;;;16.80;62.70;;;;;;6166928;23;20016;-85
2023/05/14 02:02:07;;;;;;;10.07;7.22;;;16.80;61.60;;;;;;6166184;22;20005;-84
2023/05/14 02:04:32;;;;;;;9.98;7.07;;;16.70;60.90;;;;;;6164559;23;20005;-84
2023/05/14 02:06:58;;;;;;;8.02;6.13;;;16.70;60.30;;;;;;6165596;23;20066;-85
2023/05/14 02:09:24;;;;;;;10.43;6.20;;;16.70;59.50;;;;;;6165784;22;20005;-85
2023/05/14 02:11:50;;;;;;;12.52;6.55;;;16.60;59.10;;;;;;6165121;23;20032;-84
2023/05/14 02:14:15;;;;;;;7.57;5.97;;;16.60;58.80;;;;;;6165441;23;20007;-84
2023/05/14 02:16:41;;;;;;;8.52;6.65;;;16.60;58.60;;;;;;6165303;23;20001;-84
2023/05/14 02:19:07;;;;;;;8.63;6.65;;;16.60;58.60;;;;;;6165265;23;20009;-84
2023/05/14 02:21:32;;;;;;;7.90;6.30;;;16.60;58.80;;;;;;6165155;22;20016;-85
2023/05/14 02:23:58;;;;;;;8.98;6.60;;;16.60;58.50;;;;;;6191557;23;20436;-85
2023/05/14 02:26:23;;;;;;;8.23;6.25;;;16.60;58.30;;;;;;6191253;23;20058;-85
2023/05/14 02:28:49;;;;;;;9.63;7.22;;;16.60;58.40;;;;;;6164049;23;20020;-85
2023/05/14 02:31:17;;;;;;;9.07;7.10;;;16.60;58.10;;;;;;6165110;22;20016;-85
2023/05/14 02:33:43;;;;;;;10.75;7.32;;;16.60;58.00;;;;;;6165554;23;20009;-85
2023/05/14 02:36:09;;;;;;;13.02;8.23;;;16.70;58.40;;;;;;6191272;23;20024;-85
2023/05/14 02:38:35;;;;;;;18.30;9.48;;;16.70;58.10;;;;;;6164430;23;20008;-85
2023/05/14 02:41:00;;;;;;;19.42;10.10;;;16.70;57.60;;;;;;6164913;23;20020;-84
2023/05/14 02:43:26;;;;;;;16.00;9.82;;;16.60;57.70;;;;;;6164661;22;20005;-84
2023/05/14 02:45:52;;;;;;;14.88;10.20;;;16.70;58.00;;;;;;6191685;23;20012;-84
2023/05/14 02:48:17;;;;;;;17.17;9.60;;;16.70;58.20;;;;;;6191678;23;20021;-84
2023/05/14 02:50:43;;;;;;;18.45;11.43;;;16.70;58.30;;;;;;6165195;22;20005;-84
2023/05/14 02:53:09;;;;;;;19.38;10.43;;;16.70;58.80;;;;;;6165802;23;20008;-85
2023/05/14 02:55:35;;;;;;;16.67;10.45;;;16.70;58.40;;;;;;6163928;23;20066;-85
2023/05/14 02:58:04;;;;;;;14.10;10.13;;;16.70;58.50;;;;;;6163857;23;20028;-85
2023/05/14 03:00:29;;;;;;;17.30;9.27;;;16.70;58.60;;;;;;6163122;23;20005;-85
2023/05/14 03:02:55;;;;;;;14.02;8.55;;;16.80;58.20;;;;;;6162112;23;20005;-85
2023/05/14 03:05:21;;;;;;;12.98;8.07;;;16.80;57.90;;;;;;6165060;23;20020;-85
2023/05/14 03:07:46;;;;;;;10.93;7.57;;;16.80;57.70;;;;;;6165613;22;20015;-84
2023/05/14 03:10:15;;;;;;;12.38;7.93;;;16.90;57.90;;;;;;6165233;22;20032;-85
2023/05/14 03:12:40;;;;;;;12.10;7.80;;;16.90;58.30;;;;;;6164904;23;20027;-85
2023/05/14 03:15:08;;;;;;;11.77;8.20;;;17.00;58.80;;;;;;6166927;23;20005;-85
2023/05/14 03:17:34;;;;;;;10.93;6.40;;;17.10;59.20;;;;;;6166780;23;20012;-85
2023/05/14 03:19:59;;;;;;;10.43;6.55;;;17.10;59.30;;;;;;6168153;23;20025;-85
2023/05/14 03:22:25;;;;;;;11.43;6.25;;;17.10;59.00;;;;;;6192068;23;20034;-85
2023/05/14 03:24:51;;;;;;;8.77;5.65;;;17.20;58.40;;;;;;6165874;23;20005;-85
2023/05/14 03:27:17;;;;;;;8.40;5.88;;;17.20;58.00;;;;;;6164791;22;20092;-85
2023/05/14 03:29:42;;;;;;;6.60;5.35;;;17.30;58.40;;;;;;6165403;22;20052;-84
2023/05/14 03:32:08;;;;;;;7.38;5.10;;;17.40;58.90;;;;;;6164955;22;20005;-84
2023/05/14 03:34:34;;;;;;;6.45;5.35;;;17.40;59.10;;;;;;6165291;23;20019;-85
2023/05/14 03:36:59;;;;;;;6.18;4.68;;;17.50;58.90;;;;;;6164108;23;20002;-85
2023/05/14 03:39:26;;;;;;;5.93;4.65;;;17.50;58.90;;;;;;6165389;22;20033;-85
2023/05/14 03:41:52;;;;;;;7.05;4.68;;;17.50;59.20;;;;;;6166328;23;20005;-85
2023/05/14 03:44:18;;;;;;;5.57;3.97;;;17.60;59.50;;;;;;6165598;23;20009;-85
2023/05/14 03:46:43;;;;;;;5.18;3.83;;;17.60;58.40;;;;;;6165179;23;20009;-85
2023/05/14 03:49:09;;;;;;;5.43;4.05;;;17.60;57.90;;;;;;6165593;23;20009;-85
2023/05/14 03:51:35;;;;;;;7.22;3.88;;;17.70;57.50;;;;;;6166485;23;20004;-86
2023/05/14 03:54:01;;;;;;;6.07;4.30;;;17.80;57.40;;;;;;6167005;22;20009;-85
2023/05/14 03:56:27;;;;;;;6.30;3.83;;;17.80;57.10;;;;;;6166135;22;19991;-85
2023/05/14 03:58:53;;;;;;;5.63;3.40;;;17.90;56.70;;;;;;6166831;23;20005;-87
2023/05/14 04:01:18;;;;;;;5.70;4.00;;;18.00;56.50;;;;;;6166333;23;20013;-85
2023/05/14 04:03:44;;;;;;;5.43;3.63;;;18.10;56.20;;;;;;6167372;23;20019;-85
2023/05/14 04:06:10;;;;;;;5.25;3.80;;;18.20;56.50;;;;;;6166149;23;20005;-85
2023/05/14 04:08:35;;;;;;;4.57;3.17;;;18.30;55.80;;;;;;6168018;22;20009;-85
2023/05/14 04:11:01;;;;;;;3.85;3.35;;;18.40;55.50;;;;;;6169006;23;20012;-85
2023/05/14 04:13:27;;;;;;;5.13;3.72;;;18.40;55.40;;;;;;6144210;23;20019;-85
2023/05/14 04:15:52;;;;;;;5.55;3.20;;;18.50;55.20;;;;;;6167799;23;20047;-85
2023/05/14 04:18:18;;;;;;;4.97;3.28;;;18.60;54.80;;;;;;6168400;22;20009;-85
2023/05/14 04:20:44;;;;;;;4.50;3.25;;;18.80;54.80;;;;;;6143966;23;20048;-85
2023/05/14 04:23:09;;;;;;;4.55;3.40;;;19.10;54.70;;;;;;6164288;22;20020;-85
2023/05/14 04:25:35;;;;;;;8.30;3.20;;;19.80;54.40;;;;;;6164121;23;20048;-86
2023/05/14 04:28:01;;;;;;;3.83;3.08;;;20.60;53.50;;;;;;6162736;23;20006;-86
2023/05/14 04:30:26;;;;;;;4.20;3.30;;;21.70;52.50;;;;;;6165993;23;20001;-86
2023/05/14 04:32:52;;;;;;;4.10;3.20;;;22.70;51.10;;;;;;6164648;23;20006;-86
2023/05/14 04:35:19;;;;;;;4.28;3.17;;;23.70;49.90;;;;;;6163645;23;20006;-86
2023/05/14 04:37:45;;;;;;;3.47;2.80;;;24.60;48.90;;;;;;6163127;23;20005;-86
2023/05/14 04:40:11;;;;;;;3.05;2.70;;;25.40;47.80;;;;;;6162558;23;20096;-86
2023/05/14 04:42:37;;;;;;;4.20;2.90;;;26.20;47.10;;;;;;6162569;23;20013;-86
2023/05/14 04:45:05;;;;;;;32.95;5.55;;;26.80;46.00;;;;;;6161697;23;20002;-87
2023/05/14 04:47:31;;;;;;;7.55;3.53;;;27.40;46.00;;;;;;6140934;23;20001;-87
2023/05/14 04:49:57;;;;;;;3.92;2.60;;;27.80;44.80;;;;;;6166856;23;20051;-87
2023/05/14 04:52:24;;;;;;;3.83;2.67;;;28.00;44.40;;;;;;6167547;23;20006;-87
2023/05/14 04:54:49;;;;;;;3.60;2.67;;;28.40;44.00;;;;;;6167037;23;20035;-87
2023/05/14 04:57:15;;;;;;;2.58;2.35;;;28.80;43.20;;;;;;6164733;23;20007;-87
2023/05/14 04:59:41;;;;;;;3.03;2.80;;;29.10;43.10;;;;;;6165954;23;20008;-87
2023/05/14 05:02:07;;;;;;;3.67;3.00;;;29.40;42.70;;;;;;6165103;23;20005;-87
2023/05/14 05:04:33;;;;;;;4.18;3.05;;;29.60;42.20;;;;;;6165559;23;20010;-87
2023/05/14 05:06:58;;;;;;;2.90;2.63;;;29.70;41.90;;;;;;6165924;23;20009;-88
2023/05/14 05:09:24;;;;;;;5.82;2.20;;;29.40;41.30;;;;;;6169455;23;20020;-88
2023/05/14 05:11:50;;;;;;;4.18;2.90;;;28.90;41.20;;;;;;6171475;23;20005;-87
2023/05/14 05:14:16;;;;;;;3.35;2.35;;;28.20;41.20;;;;;;6171031;23;20036;-88
2023/05/14 05:16:42;;;;;;;4.68;2.70;;;27.40;41.50;;;;;;6170220;22;20039;-87
2023/05/14 05:19:07;;;;;;;4.18;2.40;;;26.90;41.80;;;;;;6171859;23;20002;-87
2023/05/14 05:21:34;;;;;;;4.53;2.67;;;26.60;41.90;;;;;;6170575;23;20029;-87
2023/05/14 05:24:02;;;;;;;5.03;3.03;;;26.40;42.00;;;;;;6169856;23;20041;-87
2023/05/14 05:26:27;;;;;;;3.08;2.70;;;26.10;42.20;;;;;;6172106;23;20012;-87
2023/05/14 05:28:53;;;;;;;4.30;2.50;;;25.70;42.30;;;;;;6171751;23;20014;-87
2023/05/14 05:31:19;;;;;;;4.22;2.78;;;25.40;42.70;;;;;;6171075;23;20002;-87
2023/05/14 05:33:45;;;;;;;4.18;3.00;;;25.10;42.90;;;;;;6170872;23;20025;-87
2023/05/14 05:36:10;;;;;;;4.15;2.55;;;24.80;43.30;;;;;;6165460;23;20017;-87
2023/05/14 05:38:36;;;;;;;4.32;2.70;;;24.50;43.50;;;;;;6159284;23;20010;-87
2023/05/14 05:41:02;;;;;;;3.40;3.10;;;24.30;43.90;;;;;;6159171;23;20029;-87
2023/05/14 05:43:27;;;;;;;3.58;2.83;;;24.10;44.40;;;;;;6165477;23;20010;-87
2023/05/14 05:45:53;;;;;;;3.30;2.60;;;23.90;44.90;;;;;;6168156;23;20009;-87
2023/05/14 05:48:19;;;;;;;5.30;3.03;;;23.70;45.90;;;;;;6164844;23;20096;-87
2023/05/14 05:50:49;;;;;;;3.25;2.72;;;23.40;46.80;;;;;;6166353;23;20005;-87
2023/05/14 05:53:17;;;;;;;2.78;2.40;;;23.20;47.80;;;;;;6166128;23;20006;-87
2023/05/14 05:55:43;;;;;;;5.15;3.13;;;22.90;48.30;;;;;;6171255;22;20013;-87
2023/05/14 05:58:09;;;;;;;4.18;2.67;;;22.70;49.00;;;;;;6164448;23;20089;-87
2023/05/14 06:00:35;;;;;;;5.32;2.55;;;22.50;49.50;;;;;;6163754;23;20055;-85
2023/05/14 06:03:00;;;;;;;3.60;2.75;;;22.20;50.40;;;;;;6153687;23;20013;-81
2023/05/14 06:05:26;;;;;;;3.28;2.70;;;22.00;50.90;;;;;;6147538;23;20006;-81
2023/05/14 06:07:54;;;;;;;4.03;2.90;;;21.80;51.00;;;;;;6149539;23;20425;-81
2023/05/14 06:10:20;;;;;;;3.58;3.10;;;21.70;50.90;;;;;;6145303;23;20043;-80
2023/05/14 06:12:46;;;;;;;4.95;3.25;;;21.50;50.50;;;;;;6141982;23;20084;-81
2023/05/14 06:15:11;;;;;;;3.47;2.90;;;21.40;50.40;;;;;;6145201;23;20104;-81
2023/05/14 06:17:38;;;;;;;3.85;2.95;;;21.40;49.60;;;;;;6145440;23;20006;-81
2023/05/14 06:20:07;;;;;;;3.63;2.70;;;21.30;49.40;;;;;;6145077;23;20002;-81
2023/05/14 06:22:33;;;;;;;3.65;2.95;;;21.30;49.60;;;;;;6149504;23;20021;-81
2023/05/14 06:24:59;;;;;;;2.95;2.55;;;21.30;49.80;;;;;;6151277;23;20005;-81
2023/05/14 06:27:24;;;;;;;3.55;2.67;;;21.40;49.50;;;;;;6151978;23;20080;-81
2023/05/14 06:29:50;;;;;;;2.90;2.70;;;21.40;49.40;;;;;;6150093;22;20391;-81
2023/05/14 06:32:16;;;;;;;2.75;2.55;;;21.40;49.40;;;;;;6149304;22;20047;-80
2023/05/14 06:34:42;;;;;;;5.07;3.40;;;21.50;49.30;;;;;;6145595;23;20001;-80
2023/05/14 06:37:09;;;;;;;4.85;2.97;;;21.60;49.00;;;;;;6149437;23;20064;-80
2023/05/14 06:39:36;;;;;;;2.90;2.70;;;21.70;48.90;;;;;;6173209;22;20012;-80
2023/05/14 06:42:02;;;;;;;3.80;2.90;;;21.70;49.20;;;;;;6147787;23;20066;-80
2023/05/14 06:44:28;;;;;;;3.40;3.08;;;21.80;48.70;;;;;;6149862;23;20013;-80
2023/05/14 06:46:54;;;;;;;5.50;3.28;;;21.80;48.40;;;;;;6170087;23;20028;-81
2023/05/14 06:49:20;;;;;;;3.33;3.00;;;21.80;48.10;;;;;;6148760;22;20044;-81
2023/05/14 06:51:46;;;;;;;3.10;2.75;;;21.80;48.00;;;;;;6145626;23;20070;-81
2023/05/14 06:54:11;;;;;;;4.32;2.95;;;21.80;47.90;;;;;;6148869;23;20005;-80
2023/05/14 06:56:37;;;;;;;4.40;3.28;;;21.90;47.80;;;;;;6149533;23;20469;-80
2023/05/14 06:59:03;;;;;;;3.53;2.90;;;21.90;47.80;;;;;;6148067;23;20061;-81
2023/05/14 07:01:29;;;;;;;4.07;2.88;;;22.00;47.70;;;;;;6146738;23;20009;-81
2023/05/14 07:03:55;;;;;;;3.97;3.00;;;22.00;47.90;;;;;;6179069;23;20082;-81
2023/05/14 07:06:21;;;;;;;4.82;3.38;;;22.10;48.00;;;;;;6150757;23;20045;-84
2023/05/14 07:08:47;;;;;;;3.30;2.90;;;22.10;48.10;;;;;;6155330;23;20013;-84
2023/05/14 07:11:30;;;;;;;4.72;3.17;;;22.20;48.20;;;;;;6154759;22;20100;-83
2023/05/14 07:13:56;;;;;;;5.40;3.20;;;22.20;48.30;;;;;;6178800;23;19997;-84
2023/05/14 07:16:21;;;;;;;4.68;2.90;;;22.20;48.60;;;;;;6152635;22;20074;-84
2023/05/14 07:18:47;;;;;;;4.10;3.25;;;22.20;49.40;;;;;;6151423;22;20016;-85
2023/05/14 07:21:13;;;;;;;4.38;3.38;;;22.30;49.40;;;;;;6152659;23;20032;-86
2023/05/14 07:23:38;;;;;;;4.25;2.83;;;22.30;49.70;;;;;;6149660;22;20022;-85
2023/05/14 07:26:05;;;;;;;3.88;3.20;;;22.30;50.40;;;;;;6150063;23;20013;-83
2023/05/14 07:28:31;;;;;;;3.75;3.00;;;22.30;50.80;;;;;;6178073;22;20017;-84
2023/05/14 07:30:57;;;;;;;3.05;2.75;;;22.30;50.60;;;;;;6144507;23;20013;-83
2023/05/14 07:33:26;;;;;;;3.58;3.00;;;22.30;50.20;;;;;;6148872;23;20024;-88
2023/05/14 07:35:53;;;;;;;5.03;3.08;;;22.30;49.80;;;;;;6156640;23;20054;-81
2023/05/14 07:38:19;;;;;;;2.97;2.65;;;22.20;49.40;;;;;;6167903;22;20384;-84
2023/05/14 07:40:45;;;;;;;4.10;3.25;;;22.20;49.30;;;;;;6146901;23;20016;-82
2023/05/14 07:43:10;;;;;;;3.03;2.67;;;22.20;49.50;;;;;;6145833;23;20017;-83
2023/05/14 07:45:38;;;;;;;3.35;2.95;;;22.20;49.40;;;;;;6145500;23;20013;-83
2023/05/14 07:48:04;;;;;;;3.88;3.10;;;22.20;49.20;;;;;;6143999;23;20005;-82
2023/05/14 07:50:30;;;;;;;4.03;3.10;;;22.20;49.20;;;;;;6141879;23;20447;-84
2023/05/14 07:52:56;;;;;;;3.35;3.00;;;22.20;49.40;;;;;;6141963;23;20084;-83
2023/05/14 07:55:21;;;;;;;4.15;3.20;;;22.20;49.60;;;;;;6150111;23;20074;-87
2023/05/14 07:57:47;;;;;;;3.67;3.28;;;22.20;49.70;;;;;;6145262;23;20016;-82
2023/05/14 08:00:15;;;;;;;3.38;2.70;;;22.20;49.60;;;;;;6140446;23;20012;-81
2023/05/14 08:02:42;;;;;;;2.97;2.78;;;22.20;49.60;;;;;;6143141;23;20021;-83
2023/05/14 08:05:10;;;;;;;3.88;3.20;;;22.20;49.60;;;;;;6142620;23;20002;-81
2023/05/14 08:07:38;;;;;;;3.45;3.08;;;22.20;49.80;;;;;;6141512;23;20055;-82
2023/05/14 08:10:07;;;;;;;4.07;3.28;;;22.20;49.90;;;;;;6143179;23;20005;-83
2023/05/14 08:12:33;;;;;;;3.85;3.45;;;22.20;49.40;;;;;;6144585;23;20009;-82
2023/05/14 08:14:58;;;;;;;3.90;3.50;;;22.20;48.90;;;;;;6147474;23;20005;-83
2023/05/14 08:17:25;;;;;;;4.13;3.22;;;22.20;48.70;;;;;;6146439;23;20314;-84
2023/05/14 08:20:04;;;;;;;5.30;3.45;;;22.20;48.90;;;;;;6143867;23;20017;-85
2023/05/14 08:22:47;;;;;;;3.53;2.90;;;22.20;49.00;;;;;;6146611;23;20588;-81
2023/05/14 08:25:13;;;;;;;3.67;2.85;;;22.20;48.80;;;;;;6148193;23;20028;-83
2023/05/14 08:27:41;;;;;;;4.35;3.03;;;22.20;49.10;;;;;;6149475;23;20005;-83
2023/05/14 08:30:07;;;;;;;3.40;3.10;;;22.20;49.20;;;;;;6175571;23;20009;-80
2023/05/14 08:32:33;;;;;;;4.75;3.30;;;22.20;49.20;;;;;;6150055;22;20326;-84
2023/05/14 08:35:01;;;;;;;3.53;3.00;;;22.20;49.10;;;;;;6185041;23;20020;-86
2023/05/14 08:37:26;;;;;;;4.30;3.33;;;22.20;49.20;;;;;;6177143;23;20005;-82
2023/05/14 08:39:55;;;;;;;4.55;3.28;;;22.20;49.50;;;;;;6148262;22;20013;-81
2023/05/14 08:42:24;;;;;;;5.18;3.17;;;22.20;49.70;;;;;;6150874;23;20017;-84
2023/05/14 08:45:01;;;;;;;4.28;3.35;;;22.20;50.20;;;;;;6150016;22;20013;-84
2023/05/14 08:47:30;;;;;;;3.90;3.10;;;22.20;50.30;;;;;;6151474;23;20455;-85
2023/05/14 08:50:07;;;;;;;3.80;3.15;;;22.10;50.60;;;;;;6149226;23;20016;-81
2023/05/14 08:52:48;;;;;;;5.50;3.63;;;22.10;50.80;;;;;;6148019;23;20013;-83
2023/05/14 08:55:16;;;;;;;4.45;3.55;;;22.10;50.70;;;;;;6154672;22;20005;-84
2023/05/14 08:57:48;;;;;;;6.50;3.40;;;22.10;50.80;;;;;;6158411;23;20035;-85
2023/05/14 09:00:14;;;;;;;4.43;3.25;;;22.10;51.00;;;;;;6154188;23;20001;-84
2023/05/14 09:02:41;;;;;;;4.35;3.40;;;22.10;50.70;;;;;;6151195;23;20005;-81
2023/05/14 09:05:08;;;;;;;4.15;3.50;;;22.00;50.80;;;;;;6149833;22;20011;-83
2023/05/14 09:07:34;;;;;;;4.60;3.40;;;22.00;50.70;;;;;;6146488;23;20684;-81
2023/05/14 09:10:04;;;;;;;3.35;3.03;;;22.00;50.80;;;;;;6174770;23;20080;-85
2023/05/14 09:12:32;;;;;;;3.67;3.28;;;22.00;50.60;;;;;;6150236;22;19997;-83
2023/05/14 09:15:00;;;;;;;4.40;3.10;;;22.10;50.20;;;;;;6175381;23;20005;-85
2023/05/14 09:17:26;;;;;;;3.60;3.15;;;22.00;49.90;;;;;;6182716;23;19996;-82
2023/05/14 09:19:52;;;;;;;3.85;3.28;;;22.00;49.60;;;;;;6176695;23;20013;-85
2023/05/14 09:22:18;;;;;;;3.70;3.28;;;22.00;49.30;;;;;;6274810;22;20073;-57
2023/05/14 09:24:45;;;;;;;4.22;3.47;;;22.00;49.30;;;;;;6305251;22;19996;-55
2023/05/14 09:27:20;;;;;;;4.65;3.40;;;22.10;49.30;;;;;;6302548;22;20007;-54
2023/05/14 09:29:47;;;;;;;4.43;3.10;;;22.00;49.10;;;;;;6301776;22;20486;-56
2023/05/14 09:32:12;;;;;;;4.35;3.38;;;22.00;49.00;;;;;;6302807;22;20000;-57
2023/05/14 09:34:39;;;;;;;5.78;3.28;;;22.00;48.90;;;;;;6303542;22;20002;-58
2023/05/14 09:37:06;;;;;;;3.75;3.13;;;22.00;48.80;;;;;;6305159;22;20120;-55
2023/05/14 09:39:35;;;;;;;4.68;3.30;;;22.00;49.00;;;;;;6307155;22;20086;-55
2023/05/14 09:42:00;;;;;;;5.53;3.50;;;22.00;49.30;;;;;;6309332;22;20017;-55
2023/05/14 09:44:27;;;;;;;5.60;3.50;;;22.00;49.30;;;;;;6310025;22;20031;-55
2023/05/14 09:46:53;;;;;;;5.63;3.15;;;22.00;49.20;;;;;;6305166;22;20068;-55
2023/05/14 09:49:19;;;;;;;3.45;3.15;;;22.00;49.30;;;;;;6274110;22;20096;-56
2023/05/14 09:51:45;;;;;;;5.65;3.92;;;22.00;49.30;;;;;;6300990;22;19996;-54
2023/05/14 09:54:11;;;;;;;5.25;3.50;;;22.00;48.90;;;;;;6303183;22;20053;-55
2023/05/14 09:56:38;;;;;;;4.20;3.42;;;22.00;48.60;;;;;;6304344;22;20018;-56
2023/05/14 09:59:04;;;;;;;6.00;3.90;;;22.00;48.40;;;;;;6303282;22;20092;-57
2023/05/14 10:01:34;;;;;;;4.70;3.30;;;22.00;48.20;;;;;;6302938;22;20007;-56
2023/05/14 10:04:02;;;;;;;5.07;3.63;;;22.00;48.30;;;;;;6305716;22;19996;-55
2023/05/14 10:06:32;;;;;;;6.68;3.83;;;22.10;48.20;;;;;;6306965;22;20074;-56
2023/05/14 10:09:03;;;;;;;4.45;3.13;;;22.10;48.00;;;;;;6306006;22;20014;-55
2023/05/14 10:11:32;;;;;;;4.40;3.20;;;22.10;48.10;;;;;;6306046;22;20427;-56
2023/05/14 10:14:06;;;;;;;5.82;3.17;;;22.20;48.70;;;;;;6302030;22;20037;-56
2023/05/14 10:16:46;;;;;;;4.45;3.67;;;22.20;47.90;;;;;;6301590;22;20007;-54
2023/05/14 10:19:16;;;;;;;3.50;3.20;;;22.30;47.80;;;;;;6302322;22;20025;-53
2023/05/14 10:21:45;;;;;;;5.25;3.28;;;22.30;47.60;;;;;;6232568;22;20020;-56
2023/05/14 10:24:11;;;;;;;4.07;3.50;;;22.30;47.10;;;;;;6179347;22;20494;-57
2023/05/14 10:26:39;;;;;;;3.95;3.38;;;22.40;46.80;;;;;;6179385;22;20261;-55
2023/05/14 10:29:05;;;;;;;4.13;3.33;;;22.40;46.60;;;;;;6179168;22;20138;-57
2023/05/14 10:31:46;;;;;;;5.43;3.10;;;22.40;46.60;;;;;;6177472;22;20378;-58
2023/05/14 10:34:37;;;;;;;6.63;3.80;;;22.50;46.20;;;;;;6174983;22;20008;-57
2023/05/14 10:37:09;;;;;;;5.25;3.30;;;22.50;46.20;;;;;;6284369;22;20005;-56
2023/05/14 10:39:50;;;;;;;4.55;3.35;;;22.50;46.60;;;;;;6179209;22;20511;-57
2023/05/14 10:42:21;;;;;;;5.25;3.40;;;22.50;46.20;;;;;;6177991;22;20351;-57
2023/05/14 10:44:49;;;;;;;6.10;3.50;;;22.50;46.30;;;;;;6180184;22;20011;-57
2023/05/14 10:47:18;;;;;;;4.70;3.55;;;22.50;46.50;;;;;;6180368;22;20001;-56
2023/05/14 10:49:47;;;;;;;4.60;3.60;;;22.50;46.50;;;;;;6176969;22;20062;-57
2023/05/14 10:52:16;;;;;;;4.20;3.80;;;22.50;46.10;;;;;;6181187;22;20001;-56
2023/05/14 10:54:52;;;;;;;5.18;3.08;;;22.60;45.70;;;;;;6179436;22;20062;-56
2023/05/14 10:57:19;;;;;;;4.97;3.90;;;22.60;45.40;;;;;;6176826;23;20012;-56
2023/05/14 10:59:47;;;;;;;4.28;3.80;;;22.60;45.30;;;;;;6175468;23;20005;-57
2023/05/14 11:02:39;;;;;;;4.63;3.85;;;22.60;45.10;;;;;;6176553;22;20429;-56
2023/05/14 11:05:12;;;;;;;3.80;3.40;;;22.70;44.80;;;;;;6178766;22;20005;-56
2023/05/14 11:07:42;;;;;;;5.70;3.67;;;22.70;44.50;;;;;;6174069;22;20378;-57
2023/05/14 11:10:11;;;;;;;5.77;3.50;;;22.70;44.10;;;;;;6178357;23;20024;-57
2023/05/14 11:12:39;;;;;;;5.20;3.30;;;22.80;44.40;;;;;;6176844;22;20007;-52
2023/05/14 11:15:27;;;;;;;8.82;3.50;;;22.80;45.90;;;;;;6177757;22;20009;-52
2023/05/14 11:17:53;;;;;;;5.47;3.63;;;22.90;48.00;;;;;;6178173;22;20016;-52
2023/05/14 11:20:19;;;;;;;3.80;2.75;;;22.80;47.80;;;;;;6181195;22;20490;-52
2023/05/14 11:22:46;;;;;;;5.57;3.40;;;22.70;47.20;;;;;;6180377;22;20021;-53
2023/05/14 11:25:13;;;;;;;5.15;3.40;;;22.70;47.10;;;;;;6179717;22;20433;-54
2023/05/14 11:27:41;;;;;;;3.30;2.95;;;22.70;47.00;;;;;;6178867;22;20343;-56
2023/05/14 11:30:18;;;;;;;3.90;2.97;;;22.60;46.80;;;;;;6286831;22;20012;-52
2023/05/14 11:32:45;;;;;;;6.53;2.90;;;22.70;47.00;;;;;;6181687;22;20032;-52
2023/05/14 11:35:11;;;;;;;3.20;2.90;;;22.60;47.50;;;;;;6178909;22;20050;-57
2023/05/14 11:37:37;;;;;;;3.03;2.70;;;22.70;47.70;;;;;;6184251;22;19998;-53
2023/05/14 11:40:08;;;;;;;3.45;2.85;;;22.60;47.60;;;;;;6182827;22;20005;-52
2023/05/14 11:42:36;;;;;;;3.55;2.90;;;22.70;46.80;;;;;;6182158;23;20076;-54
2023/05/14 11:45:01;;;;;;;4.28;2.75;;;22.70;47.20;;;;;;6181918;22;20009;-51
2023/05/14 11:47:29;;;;;;;3.22;2.78;;;22.60;47.00;;;;;;6183159;23;20005;-52
2023/05/14 11:49:55;;;;;;;3.38;3.03;;;22.60;46.30;;;;;;6183034;22;20028;-56
2023/05/14 11:52:20;;;;;;;5.78;2.88;;;22.60;46.00;;;;;;6183964;22;20445;-54
2023/05/14 11:54:48;;;;;;;2.78;2.58;;;22.60;45.80;;;;;;6182491;22;20088;-55
2023/05/14 11:57:17;;;;;;;3.85;2.67;;;22.60;46.10;;;;;;6182733;22;20008;-54
2023/05/14 11:59:44;;;;;;;3.13;2.70;;;22.70;46.80;;;;;;6182886;22;20005;-55
2023/05/14 12:02:17;;;;;;;2.92;2.53;;;22.60;47.00;;;;;;6183921;22;20005;-53
2023/05/14 12:04:48;;;;;;;5.07;2.75;;;22.60;46.80;;;;;;6183507;23;20001;-54
2023/05/14 12:07:16;;;;;;;3.95;3.10;;;22.60;45.50;;;;;;6183076;22;20005;-53
2023/05/14 12:09:50;;;;;;;3.40;2.78;;;22.60;45.10;;;;;;6182793;22;20027;-53
2023/05/14 12:12:21;;;;;;;4.90;2.80;;;22.60;44.30;;;;;;6184371;22;20016;-53
2023/05/14 12:14:48;;;;;;;3.42;2.88;;;22.60;44.20;;;;;;6183140;22;20081;-52
2023/05/14 12:17:19;;;;;;;3.75;2.70;;;22.60;44.60;;;;;;6183893;22;20024;-51
2023/05/14 12:19:52;;;;;;;2.97;2.78;;;22.60;44.70;;;;;;6183230;22;20031;-53
2023/05/14 12:22:19;;;;;;;2.38;2.20;;;22.60;45.30;;;;;;6183490;22;20025;-53
2023/05/14 12:24:58;;;;;;;4.18;2.47;;;22.60;45.60;;;;;;6183648;22;20005;-53
2023/05/14 12:27:27;;;;;;;4.82;2.40;;;22.60;45.50;;;;;;6184057;22;20027;-51
2023/05/14 12:30:04;;;;;;;3.08;2.78;;;22.60;45.50;;;;;;6183625;22;20005;-53
2023/05/14 12:32:33;;;;;;;3.55;2.58;;;22.60;45.50;;;;;;6180782;22;20086;-53
2023/05/14 12:35:00;;;;;;;3.85;2.72;;;22.60;44.90;;;;;;6184547;22;20001;-55
2023/05/14 12:37:26;;;;;;;3.03;2.72;;;22.60;44.80;;;;;;6182338;22;20017;-50
2023/05/14 12:39:51;;;;;;;2.70;2.50;;;22.60;46.30;;;;;;6182661;22;20005;-56
2023/05/14 12:42:17;;;;;;;3.35;2.95;;;22.60;45.80;;;;;;6183285;22;20009;-51
2023/05/14 12:44:43;;;;;;;3.83;2.70;;;22.50;46.30;;;;;;6182170;22;20380;-53
2023/05/14 12:47:08;;;;;;;2.97;2.70;;;22.40;46.80;;;;;;6182513;22;20336;-52
2023/05/14 12:49:34;;;;;;;3.63;3.05;;;22.30;48.00;;;;;;6181161;22;20034;-53